Time;durP1;ratioP1;P1;durP2;ratioP2;P2;SDS_P1;SDS_P2;PMS_P1;PMS_P2;Temp;Humidity;BMP_temperature;BMP_pressure;BME280_temperature;BME280_humidity;BME280_pressure;Samples;Min_cycle;Max_cycle;Signal;HPM_P1;HPM_P2
2022/11/10 00:00:08;;;;;;;;;;;10.30;99.90;;;;;;5079704;28;20020;-66
2022/11/10 00:02:33;;;;;;;;;;;10.30;99.90;;;;;;5097434;28;19955;-66
2022/11/10 00:04:59;;;;;;;;;;;10.30;99.90;;;;;;5097414;28;19915;-66
2022/11/10 00:07:25;;;;;;;;;;;10.30;99.90;;;;;;5079259;28;19915;-66
2022/11/10 00:09:51;;;;;;;;;;;10.30;99.90;;;;;;5097187;28;19962;-67
2022/11/10 00:12:17;;;;;;;;;;;10.30;99.90;;;;;;5097198;28;19931;-66
2022/11/10 00:17:28;;;;;;;;;;;10.20;99.90;;;;;;5081918;28;19915;-66
2022/11/10 00:19:54;;;;;;;;;;;10.30;99.90;;;;;;5097099;28;19908;-66
2022/11/10 00:22:19;;;;;;;;;;;10.30;99.90;;;;;;5097008;28;19908;-67
2022/11/10 00:24:45;;;;;;;;;;;10.30;99.90;;;;;;5078816;28;20366;-66
2022/11/10 00:27:12;;;;;;;;;;;10.30;99.90;;;;;;5078941;28;19909;-66
2022/11/10 00:29:38;;;;;;;;;;;10.30;99.90;;;;;;5078686;28;20037;-67
2022/11/10 00:32:03;;;;;;;;;;;10.30;99.90;;;;;;5096782;28;20372;-66
2022/11/10 00:34:29;;;;;;;;;;;10.30;99.90;;;;;;5096742;28;20254;-66
2022/11/10 00:36:54;;;;;;;;;;;10.20;99.90;;;;;;5096777;28;19921;-66
2022/11/10 00:39:19;;;;;;;;;;;10.20;99.90;;;;;;5096801;28;19916;-67
2022/11/10 00:41:45;;;;;;;;;;;10.20;99.90;;;;;;5078736;28;19953;-66
2022/11/10 00:44:10;;;;;;;;;;;10.20;99.90;;;;;;5078512;28;19955;-66
2022/11/10 00:46:36;;;;;;;;;;;10.20;99.90;;;;;;5096599;28;19915;-66
2022/11/10 00:49:01;;;;;;;;;;;10.20;99.90;;;;;;5096537;28;19914;-66
2022/11/10 00:51:27;;;;;;;;;;;10.20;99.90;;;;;;5096530;28;19909;-66
2022/11/10 00:53:53;;;;;;;;;;;10.10;99.90;;;;;;5078484;28;20018;-66
2022/11/10 00:56:19;;;;;;;;;;;10.10;99.90;;;;;;5078309;28;20007;-66
2022/11/10 00:58:44;;;;;;;;;;;10.20;99.90;;;;;;5061558;28;19917;-66
2022/11/10 01:01:10;;;;;;;;;;;10.10;99.90;;;;;;5096089;28;19994;-66
2022/11/10 01:03:36;;;;;;;;;;;10.10;99.90;;;;;;5096102;28;19908;-66
2022/11/10 01:06:05;;;;;;;;;;;10.10;99.90;;;;;;5096293;28;19908;-66
2022/11/10 01:08:30;;;;;;;;;;;10.10;99.90;;;;;;5096256;28;19908;-66
2022/11/10 01:11:04;;;;;;;;;;;10.10;99.90;;;;;;5077986;28;19919;-66
2022/11/10 01:13:30;;;;;;;;;;;10.00;99.90;;;;;;5096119;28;19908;-66
2022/11/10 01:15:55;;;;;;;;;;;10.00;99.90;;;;;;5095978;28;20431;-66
2022/11/10 01:18:20;;;;;;;;;;;10.10;99.90;;;;;;5095940;28;20003;-66
2022/11/10 01:20:50;;;;;;;;;;;10.00;99.90;;;;;;5077894;28;19915;-66
2022/11/10 01:23:16;;;;;;;;;;;10.00;99.90;;;;;;5095953;28;20346;-66
2022/11/10 01:25:41;;;;;;;;;;;10.00;99.90;;;;;;5095893;28;19952;-66
2022/11/10 01:28:07;;;;;;;;;;;9.90;99.90;;;;;;5095846;28;19915;-66
2022/11/10 01:30:32;;;;;;;;;;;9.90;99.90;;;;;;5095570;28;20393;-66
2022/11/10 01:32:57;;;;;;;;;;;10.00;99.90;;;;;;5095681;28;19908;-66
2022/11/10 01:35:23;;;;;;;;;;;10.00;99.90;;;;;;5095644;28;19909;-67
2022/11/10 01:37:50;;;;;;;;;;;10.00;99.90;;;;;;5095662;28;20003;-66
2022/11/10 01:40:15;;;;;;;;;;;9.90;99.90;;;;;;5095572;28;20000;-66
2022/11/10 01:42:47;;;;;;;;;;;9.90;99.90;;;;;;5095558;28;20374;-66
2022/11/10 01:45:32;;;;;;;;;;;9.90;99.90;;;;;;5095532;28;19912;-66
2022/11/10 01:48:01;;;;;;;;;;;9.90;99.90;;;;;;5095364;28;19908;-66
2022/11/10 01:50:30;;;;;;;;;;;9.90;99.90;;;;;;5095552;28;19998;-66
2022/11/10 01:52:58;;;;;;;;;;;9.90;99.90;;;;;;5095320;28;19908;-67
2022/11/10 01:55:23;;;;;;;;;;;9.90;99.90;;;;;;5095303;28;19962;-66
2022/11/10 01:57:50;;;;;;;;;;;9.90;99.90;;;;;;5077341;28;19908;-66
2022/11/10 02:00:16;;;;;;;;;;;9.90;99.90;;;;;;5077048;28;19915;-66
2022/11/10 02:02:48;;;;;;;;;;;9.90;99.90;;;;;;5095153;28;19915;-66
2022/11/10 02:05:14;;;;;;;;;;;9.90;99.90;;;;;;5095111;28;19930;-66
2022/11/10 02:07:40;;;;;;;;;;;9.90;99.90;;;;;;5076893;28;19949;-66
2022/11/10 02:10:13;;;;;;;;;;;9.80;99.90;;;;;;5076795;28;19912;-66
2022/11/10 02:12:38;;;;;;;;;;;9.80;99.90;;;;;;5094833;28;19960;-66
2022/11/10 02:15:05;;;;;;;;;;;9.80;99.90;;;;;;5094123;28;19908;-66
2022/11/10 02:17:30;;;;;;;;;;;9.80;99.90;;;;;;5094792;28;19909;-66
2022/11/10 02:19:57;;;;;;;;;;;9.80;99.90;;;;;;5094779;28;19915;-66
2022/11/10 02:22:23;;;;;;;;;;;9.80;99.90;;;;;;5076718;28;20389;-66
2022/11/10 02:24:48;;;;;;;;;;;9.80;99.90;;;;;;5094848;28;19999;-66
2022/11/10 02:27:14;;;;;;;;;;;9.80;99.90;;;;;;5094672;28;19908;-66
2022/11/10 02:29:39;;;;;;;;;;;9.70;99.90;;;;;;5094348;28;19927;-67
2022/11/10 02:32:05;;;;;;;;;;;9.70;99.90;;;;;;5094646;28;19908;-66
2022/11/10 02:34:30;;;;;;;;;;;9.70;99.90;;;;;;5094574;28;20007;-66
2022/11/10 02:36:55;;;;;;;;;;;9.80;99.90;;;;;;5094421;28;19908;-66
2022/11/10 02:39:21;;;;;;;;;;;9.70;99.90;;;;;;5094473;28;19959;-67
2022/11/10 02:41:46;;;;;;;;;;;9.70;99.90;;;;;;5076423;28;19909;-66
2022/11/10 02:44:12;;;;;;;;;;;9.70;99.90;;;;;;5094416;28;19912;-66
2022/11/10 02:46:37;;;;;;;;;;;9.60;99.90;;;;;;5094383;28;20056;-66
2022/11/10 02:49:03;;;;;;;;;;;9.60;99.90;;;;;;5094236;28;19908;-66
2022/11/10 02:51:28;;;;;;;;;;;9.70;99.90;;;;;;5076124;28;20054;-66
2022/11/10 02:53:54;;;;;;;;;;;9.70;99.90;;;;;;5094200;28;19908;-66
2022/11/10 02:56:19;;;;;;;;;;;9.70;99.90;;;;;;5094143;28;19994;-66
2022/11/10 02:58:44;;;;;;;;;;;9.80;99.90;;;;;;5094360;28;19916;-66
2022/11/10 03:01:10;;;;;;;;;;;9.70;99.90;;;;;;5075997;28;19908;-66
2022/11/10 03:03:35;;;;;;;;;;;9.80;99.90;;;;;;5093997;28;20285;-66
2022/11/10 03:06:01;;;;;;;;;;;9.70;99.90;;;;;;5075891;28;19908;-66
2022/11/10 03:08:26;;;;;;;;;;;9.70;99.90;;;;;;5075942;28;20381;-66
2022/11/10 03:10:53;;;;;;;;;;;9.60;99.90;;;;;;5093838;28;19980;-67
2022/11/10 03:13:18;;;;;;;;;;;9.60;99.90;;;;;;5059226;28;19908;-66
2022/11/10 03:15:45;;;;;;;;;;;9.60;99.90;;;;;;5093889;28;19916;-66
2022/11/10 03:18:11;;;;;;;;;;;9.60;99.90;;;;;;5094185;28;20384;-66
2022/11/10 03:20:36;;;;;;;;;;;9.70;99.90;;;;;;5075857;28;19908;-66
2022/11/10 03:23:03;;;;;;;;;;;9.60;99.90;;;;;;5093824;28;20003;-66
2022/11/10 03:25:28;;;;;;;;;;;9.70;99.90;;;;;;5075469;28;19908;-66
2022/11/10 03:27:54;;;;;;;;;;;9.70;99.90;;;;;;5093747;28;20013;-66
2022/11/10 03:30:19;;;;;;;;;;;9.70;99.90;;;;;;5093505;28;19973;-66
2022/11/10 03:32:44;;;;;;;;;;;9.70;99.90;;;;;;5093663;28;19995;-66
2022/11/10 03:35:10;;;;;;;;;;;9.70;99.90;;;;;;5075681;28;20370;-66
2022/11/10 03:37:35;;;;;;;;;;;9.70;99.90;;;;;;5093659;28;19991;-66
2022/11/10 03:40:01;;;;;;;;;;;9.60;99.90;;;;;;5075592;28;19908;-66
2022/11/10 03:42:26;;;;;;;;;;;9.70;99.90;;;;;;5075537;28;20271;-66
2022/11/10 03:44:52;;;;;;;;;;;9.70;99.90;;;;;;5093570;28;20006;-66
2022/11/10 03:47:17;;;;;;;;;;;9.80;99.90;;;;;;5093572;28;19908;-66
2022/11/10 03:49:43;;;;;;;;;;;9.80;99.90;;;;;;5093468;28;20223;-66
2022/11/10 03:52:08;;;;;;;;;;;9.80;99.90;;;;;;5093518;28;19908;-66
2022/11/10 03:54:34;;;;;;;;;;;9.80;99.90;;;;;;5093482;28;19915;-66
2022/11/10 03:56:59;;;;;;;;;;;9.80;99.90;;;;;;5093493;28;19908;-66
2022/11/10 03:59:24;;;;;;;;;;;9.80;99.90;;;;;;5093406;28;19908;-66
2022/11/10 04:01:50;;;;;;;;;;;9.80;99.90;;;;;;5075464;28;19913;-65
2022/11/10 04:09:46;;;;;;;;;;;9.80;99.90;;;;;;5093081;28;19912;-66
2022/11/10 04:17:47;;;;;;;;;;;9.80;99.90;;;;;;5093055;28;19985;-65
2022/11/10 04:20:13;;;;;;;;;;;9.80;99.90;;;;;;5093278;28;19912;-66
2022/11/10 04:25:23;;;;;;;;;;;9.70;99.90;;;;;;5093019;28;20277;-66
2022/11/10 04:27:49;;;;;;;;;;;9.80;99.90;;;;;;5075220;28;19908;-66
2022/11/10 04:30:14;;;;;;;;;;;9.70;99.90;;;;;;5092913;28;20056;-66
2022/11/10 04:32:40;;;;;;;;;;;9.70;99.90;;;;;;5093065;28;20384;-65
2022/11/10 04:35:05;;;;;;;;;;;9.80;99.90;;;;;;5074965;28;19999;-66
2022/11/10 04:37:31;;;;;;;;;;;9.80;99.90;;;;;;5076977;28;19954;-66
2022/11/10 04:39:56;;;;;;;;;;;9.80;99.90;;;;;;5078580;28;19999;-66
2022/11/10 04:42:22;;;;;;;;;;;9.80;99.90;;;;;;5078584;28;19914;-66
2022/11/10 04:44:47;;;;;;;;;;;9.80;99.90;;;;;;5096713;28;19995;-66
2022/11/10 04:47:12;;;;;;;;;;;9.80;99.90;;;;;;5096673;28;20006;-66
2022/11/10 04:49:38;;;;;;;;;;;9.80;99.90;;;;;;5078350;28;19970;-66
2022/11/10 04:52:03;;;;;;;;;;;9.80;99.90;;;;;;5096557;28;20380;-68
2022/11/10 04:54:29;;;;;;;;;;;9.80;99.90;;;;;;5096516;28;20281;-66
2022/11/10 04:56:54;;;;;;;;;;;9.80;99.90;;;;;;5078266;28;19909;-66
2022/11/10 04:59:20;;;;;;;;;;;9.80;99.90;;;;;;5096502;28;19923;-65
2022/11/10 05:01:45;;;;;;;;;;;9.80;99.90;;;;;;5096270;28;19908;-65
2022/11/10 05:04:11;;;;;;;;;;;9.80;99.90;;;;;;5096287;28;19915;-65
2022/11/10 05:06:36;;;;;;;;;;;9.80;99.90;;;;;;5096218;28;19915;-66
2022/11/10 05:09:02;;;;;;;;;;;9.80;99.90;;;;;;5096093;28;19954;-66
2022/11/10 05:11:27;;;;;;;;;;;9.70;99.90;;;;;;5096092;28;19908;-65
2022/11/10 05:13:53;;;;;;;;;;;9.70;99.90;;;;;;5096132;28;19913;-66
2022/11/10 05:16:18;;;;;;;;;;;9.70;99.90;;;;;;5096079;28;20358;-65
2022/11/10 05:18:44;;;;;;;;;;;9.80;99.90;;;;;;5077908;28;20345;-66
2022/11/10 05:21:09;;;;;;;;;;;9.70;99.90;;;;;;5095978;28;19915;-66
2022/11/10 05:23:38;;;;;;;;;;;9.70;99.90;;;;;;5077868;28;19908;-66
2022/11/10 05:26:04;;;;;;;;;;;9.70;99.90;;;;;;5078277;28;19919;-66
2022/11/10 05:28:30;;;;;;;;;;;9.70;99.90;;;;;;5095671;28;19989;-66
2022/11/10 05:30:55;;;;;;;;;;;9.70;99.90;;;;;;5095732;28;19912;-66
2022/11/10 05:33:20;;;;;;;;;;;9.70;99.90;;;;;;5077601;28;19915;-66
2022/11/10 05:35:47;;;;;;;;;;;9.70;99.90;;;;;;5095686;28;19991;-66
2022/11/10 05:38:13;;;;;;;;;;;9.70;99.90;;;;;;5077598;28;19967;-66
2022/11/10 05:40:38;;;;;;;;;;;9.70;99.90;;;;;;5095611;28;19920;-66
2022/11/10 05:43:03;;;;;;;;;;;9.70;99.90;;;;;;5095543;28;19908;-65
2022/11/10 05:45:29;;;;;;;;;;;9.70;99.90;;;;;;5095516;28;19955;-66
2022/11/10 05:47:55;;;;;;;;;;;9.60;99.90;;;;;;5077269;28;19958;-66
2022/11/10 05:50:21;;;;;;;;;;;9.60;99.90;;;;;;5077220;28;20448;-66
2022/11/10 05:52:47;;;;;;;;;;;9.60;99.90;;;;;;5095394;28;19911;-66
2022/11/10 05:55:13;;;;;;;;;;;9.60;99.90;;;;;;5095351;28;20382;-66
2022/11/10 05:57:42;;;;;;;;;;;9.60;99.90;;;;;;5077123;28;19912;-66
2022/11/10 06:00:08;;;;;;;;;;;9.60;99.90;;;;;;5095158;28;19908;-66
2022/11/10 06:02:34;;;;;;;;;;;9.60;99.90;;;;;;5095126;28;19915;-66
2022/11/10 06:04:59;;;;;;;;;;;9.50;99.90;;;;;;5095407;28;19915;-66
2022/11/10 06:07:25;;;;;;;;;;;9.50;99.90;;;;;;5095158;28;19915;-66
2022/11/10 06:09:50;;;;;;;;;;;9.50;99.90;;;;;;5094918;28;19912;-66
2022/11/10 06:12:15;;;;;;;;;;;9.60;99.90;;;;;;5076882;28;20003;-66
2022/11/10 06:14:41;;;;;;;;;;;9.60;99.90;;;;;;5095228;28;19954;-66
2022/11/10 06:17:06;;;;;;;;;;;9.60;99.90;;;;;;5094916;28;19908;-66
2022/11/10 06:19:32;;;;;;;;;;;9.60;99.90;;;;;;5076665;28;20358;-66
2022/11/10 06:21:57;;;;;;;;;;;9.60;99.90;;;;;;5076679;28;20366;-67
2022/11/10 06:24:23;;;;;;;;;;;9.70;99.90;;;;;;5094739;28;19916;-66
2022/11/10 06:26:48;;;;;;;;;;;9.60;99.90;;;;;;5076560;28;19908;-66
2022/11/10 06:29:13;;;;;;;;;;;9.60;99.90;;;;;;5094390;28;19920;-66
2022/11/10 06:31:39;;;;;;;;;;;9.70;99.90;;;;;;5094672;28;19961;-66
2022/11/10 06:34:04;;;;;;;;;;;9.70;99.90;;;;;;5094626;28;19908;-66
2022/11/10 06:36:30;;;;;;;;;;;9.60;99.90;;;;;;5094543;28;19951;-66
2022/11/10 06:38:55;;;;;;;;;;;9.60;99.90;;;;;;5094530;28;19912;-67
2022/11/10 06:41:21;;;;;;;;;;;9.70;99.90;;;;;;5094418;28;19912;-66
2022/11/10 06:43:46;;;;;;;;;;;9.70;99.90;;;;;;5094367;28;19908;-66
2022/11/10 06:46:12;;;;;;;;;;;9.70;99.90;;;;;;5094341;28;19959;-66
2022/11/10 06:48:38;;;;;;;;;;;9.70;99.90;;;;;;5076220;28;19915;-66
2022/11/10 06:51:04;;;;;;;;;;;9.70;99.90;;;;;;5076071;28;19959;-66
2022/11/10 06:53:29;;;;;;;;;;;9.70;99.90;;;;;;5094283;28;19908;-66
2022/11/10 06:55:55;;;;;;;;;;;9.70;99.90;;;;;;5094158;28;19908;-68
2022/11/10 06:58:20;;;;;;;;;;;9.70;99.90;;;;;;5094088;28;19915;-66
2022/11/10 07:00:45;;;;;;;;;;;9.80;99.90;;;;;;5092152;28;19908;-69
2022/11/10 07:03:12;;;;;;;;;;;9.80;99.90;;;;;;5062161;28;19916;-67
2022/11/10 07:05:38;;;;;;;;;;;9.80;99.90;;;;;;5089564;28;19915;-66
2022/11/10 07:08:04;;;;;;;;;;;9.80;99.90;;;;;;5093499;28;19931;-66
2022/11/10 07:10:30;;;;;;;;;;;9.90;99.90;;;;;;5090486;28;19912;-66
2022/11/10 07:12:57;;;;;;;;;;;9.90;99.90;;;;;;5075235;28;20380;-66
2022/11/10 07:15:23;;;;;;;;;;;10.00;99.90;;;;;;5093035;28;19908;-66
2022/11/10 07:17:48;;;;;;;;;;;10.10;99.90;;;;;;5075520;28;20284;-67
2022/11/10 07:20:14;;;;;;;;;;;10.20;99.90;;;;;;5088224;28;19915;-66
2022/11/10 07:22:39;;;;;;;;;;;10.40;99.90;;;;;;5068081;28;20302;-66
2022/11/10 07:25:05;;;;;;;;;;;10.70;99.90;;;;;;5089943;28;19973;-66
2022/11/10 07:27:30;;;;;;;;;;;10.90;99.90;;;;;;5075159;28;19968;-66
2022/11/10 07:29:56;;;;;;;;;;;11.20;99.90;;;;;;5076572;28;19928;-67
2022/11/10 07:32:21;;;;;;;;;;;11.20;99.90;;;;;;5085287;28;20045;-67
2022/11/10 07:34:47;;;;;;;;;;;11.40;99.90;;;;;;5071814;28;19908;-67
2022/11/10 07:37:12;;;;;;;;;;;11.50;99.90;;;;;;5080967;28;19920;-67
2022/11/10 07:39:37;;;;;;;;;;;11.70;99.90;;;;;;5078964;28;19915;-66
2022/11/10 07:42:03;;;;;;;;;;;11.80;99.90;;;;;;5080775;28;19919;-67
2022/11/10 07:44:29;;;;;;;;;;;12.10;99.90;;;;;;5080675;28;20010;-66
2022/11/10 07:46:54;;;;;;;;;;;12.30;99.90;;;;;;5093864;28;19915;-66
2022/11/10 07:49:20;;;;;;;;;;;12.20;99.90;;;;;;5093441;28;19920;-66
2022/11/10 07:51:45;;;;;;;;;;;12.30;99.90;;;;;;5086603;28;19908;-66
2022/11/10 07:54:11;;;;;;;;;;;12.40;99.90;;;;;;5093473;28;19912;-66
2022/11/10 07:56:36;;;;;;;;;;;12.70;99.90;;;;;;5092797;28;19914;-67
2022/11/10 07:59:02;;;;;;;;;;;13.00;99.90;;;;;;5072323;28;19966;-67
2022/11/10 08:01:27;;;;;;;;;;;13.00;99.90;;;;;;5084298;28;19915;-67
2022/11/10 08:03:52;;;;;;;;;;;13.10;99.90;;;;;;5090126;28;19916;-66
2022/11/10 08:06:18;;;;;;;;;;;13.30;99.90;;;;;;5091614;28;19918;-67
2022/11/10 08:08:45;;;;;;;;;;;13.10;99.90;;;;;;5077398;28;19913;-67
2022/11/10 08:11:11;;;;;;;;;;;13.20;99.90;;;;;;5090606;28;19937;-66
2022/11/10 08:13:38;;;;;;;;;;;13.50;99.90;;;;;;5095974;28;20035;-66
2022/11/10 08:16:04;;;;;;;;;;;13.30;99.90;;;;;;5095278;28;20338;-67
2022/11/10 08:18:29;;;;;;;;;;;13.80;99.90;;;;;;5092794;28;19909;-67
2022/11/10 08:20:54;;;;;;;;;;;14.10;99.90;;;;;;5088208;28;20061;-68
2022/11/10 08:23:20;;;;;;;;;;;14.30;99.90;;;;;;5066911;28;20403;-67
2022/11/10 08:25:46;;;;;;;;;;;13.90;99.90;;;;;;5087455;28;19920;-66
2022/11/10 08:28:14;;;;;;;;;;;14.00;99.90;;;;;;5091935;28;19912;-66
2022/11/10 08:30:40;;;;;;;;;;;14.00;99.90;;;;;;5082794;28;19970;-66
2022/11/10 08:33:06;;;;;;;;;;;14.20;99.90;;;;;;5089650;28;19912;-67
2022/11/10 08:35:34;;;;;;;;;;;14.20;99.90;;;;;;5084315;28;20297;-68
2022/11/10 08:38:16;;;;;;;;;;;14.50;99.90;;;;;;5080418;28;19916;-67
2022/11/10 08:40:42;;;;;;;;;;;14.50;99.90;;;;;;5080927;28;19909;-67
2022/11/10 08:43:08;;;;;;;;;;;14.10;99.90;;;;;;5092464;28;19934;-66
2022/11/10 08:45:34;;;;;;;;;;;14.40;99.90;;;;;;5087703;28;19969;-67
2022/11/10 08:48:01;;;;;;;;;;;14.40;99.90;;;;;;5081615;28;19918;-67
2022/11/10 08:50:27;;;;;;;;;;;14.60;99.90;;;;;;5077765;28;20369;-66
2022/11/10 08:52:52;;;;;;;;;;;15.00;99.90;;;;;;5091768;28;19912;-65
2022/11/10 08:55:19;;;;;;;;;;;15.20;99.90;;;;;;5095905;28;19965;-66
2022/11/10 08:57:45;;;;;;;;;;;15.20;99.90;;;;;;5090490;28;19923;-66
2022/11/10 09:00:11;;;;;;;;;;;15.20;99.90;;;;;;5091932;28;19912;-66
2022/11/10 09:02:37;;;;;;;;;;;15.40;99.90;;;;;;5061141;28;19987;-66
2022/11/10 09:05:02;;;;;;;;;;;15.40;99.90;;;;;;5084034;28;20069;-65
2022/11/10 09:07:29;;;;;;;;;;;15.50;99.90;;;;;;5075544;28;19912;-65
2022/11/10 09:09:55;;;;;;;;;;;14.90;99.90;;;;;;5091527;28;20277;-66
2022/11/10 09:12:20;;;;;;;;;;;15.10;99.90;;;;;;5090103;28;19913;-67
2022/11/10 09:14:46;;;;;;;;;;;15.10;99.90;;;;;;5087317;28;20065;-66
2022/11/10 09:17:12;;;;;;;;;;;15.20;99.90;;;;;;5082029;28;19920;-66
2022/11/10 09:19:37;;;;;;;;;;;15.30;99.90;;;;;;5080221;28;19913;-67
2022/11/10 09:22:03;;;;;;;;;;;15.40;99.90;;;;;;5086639;28;20270;-66
2022/11/10 09:24:28;;;;;;;;;;;15.20;99.90;;;;;;5082829;28;20369;-67
2022/11/10 09:26:54;;;;;;;;;;;15.30;99.90;;;;;;5089227;28;19912;-65
2022/11/10 09:29:20;;;;;;;;;;;15.80;99.90;;;;;;5089417;28;19928;-66
2022/11/10 09:31:46;;;;;;;;;;;15.50;99.90;;;;;;5095648;28;19910;-66
2022/11/10 09:34:11;;;;;;;;;;;15.70;99.90;;;;;;5081604;28;19947;-66
2022/11/10 09:36:39;;;;;;;;;;;15.80;99.90;;;;;;5090160;28;19916;-66
2022/11/10 09:39:05;;;;;;;;;;;15.90;99.90;;;;;;5090069;28;19920;-66
2022/11/10 09:41:30;;;;;;;;;;;15.90;99.90;;;;;;5085031;28;19908;-66
2022/11/10 09:44:14;;;;;;;;;;;16.30;99.90;;;;;;5078589;28;19936;-66
2022/11/10 09:46:41;;;;;;;;;;;16.00;99.90;;;;;;5083644;28;19956;-68
2022/11/10 09:49:18;;;;;;;;;;;15.60;99.90;;;;;;5092524;28;19913;-65
2022/11/10 09:51:44;;;;;;;;;;;15.50;99.90;;;;;;5093645;28;20015;-66
2022/11/10 09:54:21;;;;;;;;;;;15.90;99.90;;;;;;5094696;28;20377;-67
2022/11/10 09:56:47;;;;;;;;;;;16.70;99.90;;;;;;5091832;28;19912;-66
2022/11/10 09:59:18;;;;;;;;;;;17.20;99.90;;;;;;5089885;28;19916;-66
2022/11/10 10:01:47;;;;;;;;;;;16.10;99.90;;;;;;5083533;28;19957;-66
2022/11/10 10:04:30;;;;;;;;;;;16.30;99.90;;;;;;5080980;28;19912;-67
2022/11/10 10:07:01;;;;;;;;;;;16.20;99.90;;;;;;5091126;28;19912;-67
2022/11/10 10:09:35;;;;;;;;;;;17.00;99.90;;;;;;5080665;28;20023;-67
2022/11/10 10:12:09;;;;;;;;;;;17.00;99.90;;;;;;5085884;28;19912;-66
2022/11/10 10:14:45;;;;;;;;;;;16.80;99.90;;;;;;5078648;28;19951;-69
2022/11/10 10:17:31;;;;;;;;;;;16.70;99.90;;;;;;5089578;28;20278;-67
2022/11/10 10:19:59;;;;;;;;;;;16.80;99.90;;;;;;5077472;28;21662;-66
2022/11/10 10:22:28;;;;;;;;;;;17.00;99.90;;;;;;5079167;28;19959;-66
2022/11/10 10:24:56;;;;;;;;;;;17.00;99.90;;;;;;5079524;28;20352;-66
2022/11/10 10:27:24;;;;;;;;;;;17.30;99.90;;;;;;5080447;28;20312;-66
2022/11/10 10:29:50;;;;;;;;;;;16.90;99.90;;;;;;5073954;28;19920;-67
2022/11/10 10:32:16;;;;;;;;;;;17.30;99.90;;;;;;5083997;28;19923;-67
2022/11/10 10:34:43;;;;;;;;;;;16.70;99.90;;;;;;5086757;28;19913;-67
2022/11/10 10:37:28;;;;;;;;;;;16.50;99.90;;;;;;5077817;28;20356;-68
2022/11/10 10:39:54;;;;;;;;;;;16.50;99.90;;;;;;5082872;28;20255;-67
2022/11/10 10:42:27;;;;;;;;;;;16.80;99.90;;;;;;5077979;28;19942;-67
2022/11/10 10:45:12;;;;;;;;;;;16.80;99.90;;;;;;5081437;28;19913;-66
2022/11/10 10:47:38;;;;;;;;;;;16.80;99.90;;;;;;5090086;28;20285;-67
2022/11/10 10:50:24;;;;;;;;;;;17.20;99.90;;;;;;5083874;28;19916;-66
2022/11/10 10:53:08;;;;;;;;;;;16.70;99.90;;;;;;5080656;28;19966;-68
2022/11/10 10:55:34;;;;;;;;;;;16.70;99.90;;;;;;5080784;28;20362;-67
2022/11/10 10:58:02;;;;;;;;;;;16.90;99.90;;;;;;5084095;28;19981;-66
2022/11/10 11:00:28;;;;;;;;;;;16.70;99.90;;;;;;5080300;28;19913;-67
2022/11/10 11:03:13;;;;;;;;;;;16.60;99.90;;;;;;5074257;28;19920;-68
2022/11/10 11:05:39;;;;;;;;;;;16.70;99.90;;;;;;5083743;28;20350;-67
2022/11/10 11:08:04;;;;;;;;;;;16.70;99.90;;;;;;5091808;28;19948;-67
2022/11/10 11:10:32;;;;;;;;;;;16.50;99.90;;;;;;5086531;28;20486;-68
2022/11/10 11:13:15;;;;;;;;;;;16.30;99.90;;;;;;5091919;28;19915;-67
2022/11/10 11:15:40;;;;;;;;;;;16.20;99.90;;;;;;5087451;28;19919;-67
2022/11/10 11:18:11;;;;;;;;;;;15.70;99.90;;;;;;5093444;28;19924;-67
2022/11/10 11:20:45;;;;;;;;;;;15.70;99.90;;;;;;5092628;28;19912;-69
2022/11/10 11:23:23;;;;;;;;;;;15.90;99.90;;;;;;5074523;28;19912;-67
2022/11/10 11:25:50;;;;;;;;;;;15.90;99.90;;;;;;5093693;28;19908;-67
2022/11/10 11:28:24;;;;;;;;;;;15.60;99.90;;;;;;5086494;28;19912;-67
2022/11/10 11:30:58;;;;;;;;;;;15.40;99.90;;;;;;5091504;28;19941;-67
2022/11/10 11:33:32;;;;;;;;;;;15.30;99.90;;;;;;5090306;28;19919;-68
2022/11/10 11:41:39;;;;;;;;;;;15.80;99.90;;;;;;5089842;27;19916;-67
2022/11/10 11:44:17;;;;;;;;;;;15.90;99.90;;;;;;5058806;28;19920;-67
2022/11/10 11:47:02;;;;;;;;;;;16.20;99.90;;;;;;5064133;28;19913;-67
2022/11/10 11:49:40;;;;;;;;;;;15.90;99.90;;;;;;5070542;28;19916;-66
2022/11/10 11:52:12;;;;;;;;;;;15.70;99.90;;;;;;5061756;28;19917;-67
2022/11/10 11:54:58;;;;;;;;;;;15.80;99.90;;;;;;5067045;28;19916;-68
2022/11/10 11:57:31;;;;;;;;;;;16.00;99.90;;;;;;5065752;28;19913;-66
2022/11/10 11:59:59;;;;;;;;;;;16.00;99.90;;;;;;5064749;28;19923;-66
2022/11/10 12:02:31;;;;;;;;;;;16.20;99.90;;;;;;5067064;28;19913;-66
2022/11/10 12:05:17;;;;;;;;;;;16.40;99.90;;;;;;5069285;28;19913;-66
2022/11/10 12:07:53;;;;;;;;;;;16.20;99.90;;;;;;5064969;28;19952;-67
2022/11/10 12:10:26;;;;;;;;;;;15.90;99.90;;;;;;5069615;28;19920;-66
2022/11/10 12:13:01;;;;;;;;;;;16.00;99.90;;;;;;5056082;28;19916;-67
2022/11/10 12:15:46;;;;;;;;;;;16.10;99.90;;;;;;5069509;28;19919;-67
2022/11/10 12:18:30;;;;;;;;;;;16.20;99.90;;;;;;5068972;28;19913;-66
2022/11/10 12:21:15;;;;;;;;;;;16.20;99.90;;;;;;5064520;28;19932;-65
2022/11/10 12:23:53;;;;;;;;;;;16.40;99.90;;;;;;5065296;28;19951;-65
2022/11/10 12:29:16;;;;;;;;;;;16.40;99.90;;;;;;5103192;27;20296;-68
2022/11/10 12:31:44;;;;;;;;;;;16.50;99.90;;;;;;5093263;28;20365;-66
2022/11/10 12:34:20;;;;;;;;;;;16.50;99.90;;;;;;5104688;28;20393;-65
2022/11/10 12:36:45;;;;;;;;;;;16.30;99.90;;;;;;5105344;28;20002;-66
2022/11/10 12:39:31;;;;;;;;;;;16.30;99.90;;;;;;5105265;28;20338;-65
2022/11/10 12:41:59;;;;;;;;;;;16.40;99.90;;;;;;5111749;28;19908;-66
2022/11/10 12:44:29;;;;;;;;;;;16.30;99.90;;;;;;5097514;28;19947;-65
2022/11/10 12:46:56;;;;;;;;;;;16.60;99.90;;;;;;5110553;28;20324;-64
2022/11/10 12:49:27;;;;;;;;;;;16.50;99.90;;;;;;5107476;28;20328;-65
2022/11/10 12:52:01;;;;;;;;;;;16.30;99.90;;;;;;5106011;28;19907;-64
2022/11/10 12:54:27;;;;;;;;;;;16.10;99.90;;;;;;5101363;28;20332;-65
2022/11/10 12:56:55;;;;;;;;;;;16.00;99.90;;;;;;5101931;28;19908;-65
2022/11/10 12:59:23;;;;;;;;;;;16.10;99.90;;;;;;5104548;28;19916;-65
2022/11/10 13:01:51;;;;;;;;;;;16.00;99.90;;;;;;5099870;28;19959;-65
2022/11/10 13:04:18;;;;;;;;;;;16.10;99.90;;;;;;5105376;28;20373;-64
2022/11/10 13:06:48;;;;;;;;;;;16.10;99.90;;;;;;5102653;28;19918;-67
2022/11/10 13:09:34;;;;;;;;;;;16.20;99.90;;;;;;5096054;28;19963;-66
2022/11/10 13:12:04;;;;;;;;;;;16.10;99.90;;;;;;5104757;28;19912;-65
2022/11/10 13:14:29;;;;;;;;;;;16.10;99.90;;;;;;5129808;27;19920;-65
2022/11/10 13:16:55;;;;;;;;;;;16.10;99.90;;;;;;5090366;28;19912;-65
2022/11/10 13:24:39;;;;;;;;;;;16.20;99.90;;;;;;5049735;28;19918;-64
2022/11/10 13:27:24;;;;;;;;;;;16.20;99.90;;;;;;5048128;28;19913;-67
2022/11/10 13:29:53;;;;;;;;;;;16.30;99.90;;;;;;5039054;28;19955;-65
2022/11/10 13:32:34;;;;;;;;;;;16.30;99.90;;;;;;5041957;28;19913;-65
2022/11/10 13:35:20;;;;;;;;;;;16.10;99.90;;;;;;5049675;28;19913;-66
2022/11/10 13:37:49;;;;;;;;;;;16.00;99.90;;;;;;5040605;28;19913;-66
2022/11/10 13:40:34;;;;;;;;;;;16.00;99.90;;;;;;5040337;28;20008;-65
2022/11/10 13:43:02;;;;;;;;;;;15.90;99.90;;;;;;5029602;28;19918;-64
2022/11/10 13:45:30;;;;;;;;;;;15.90;99.90;;;;;;5035812;28;19920;-64
2022/11/10 13:47:59;;;;;;;;;;;16.00;99.90;;;;;;5039282;28;19967;-64
2022/11/10 13:50:31;;;;;;;;;;;16.00;99.90;;;;;;5049538;28;19913;-64
2022/11/10 13:53:07;;;;;;;;;;;15.80;99.90;;;;;;5043899;28;19920;-65
2022/11/10 13:55:53;;;;;;;;;;;15.80;99.90;;;;;;5042777;28;20398;-66
2022/11/10 13:58:23;;;;;;;;;;;15.70;99.90;;;;;;5050392;28;20369;-71
2022/11/10 14:00:50;;;;;;;;;;;15.70;99.90;;;;;;5051512;28;20298;-66
2022/11/10 14:03:35;;;;;;;;;;;15.70;99.90;;;;;;5041916;28;19921;-65
2022/11/10 14:06:03;;;;;;;;;;;15.60;99.90;;;;;;5039631;28;20023;-71
2022/11/10 14:08:33;;;;;;;;;;;15.60;99.90;;;;;;5050817;28;20408;-65
2022/11/10 14:11:01;;;;;;;;;;;15.60;99.90;;;;;;5048790;28;19916;-64
2022/11/10 14:13:34;;;;;;;;;;;15.50;99.90;;;;;;5047776;28;20427;-66
2022/11/10 14:15:59;;;;;;;;;;;15.50;99.90;;;;;;5047439;28;19924;-65
2022/11/10 14:18:28;;;;;;;;;;;15.50;99.90;;;;;;5032244;28;19921;-66
2022/11/10 14:20:55;;;;;;;;;;;15.50;99.90;;;;;;5048373;28;19913;-66
2022/11/10 14:23:25;;;;;;;;;;;15.50;99.90;;;;;;5052261;28;20304;-66
2022/11/10 14:25:59;;;;;;;;;;;15.40;99.90;;;;;;5047170;28;19959;-65
2022/11/10 14:28:26;;;;;;;;;;;15.40;99.90;;;;;;5038733;28;20333;-67
2022/11/10 14:30:52;;;;;;;;;;;15.30;99.90;;;;;;5048515;28;20367;-66
2022/11/10 14:33:18;;;;;;;;;;;15.30;99.90;;;;;;5046386;28;19917;-65
2022/11/10 14:35:48;;;;;;;;;;;15.30;99.90;;;;;;5030308;28;19913;-66
2022/11/10 14:38:16;;;;;;;;;;;15.30;99.90;;;;;;5041347;28;20006;-64
2022/11/10 14:40:42;;;;;;;;;;;15.30;99.90;;;;;;5035899;28;19913;-66
2022/11/10 14:43:23;;;;;;;;;;;15.30;99.90;;;;;;5035303;28;19913;-65
2022/11/10 14:45:49;;;;;;;;;;;15.20;99.90;;;;;;5051673;28;20354;-64
2022/11/10 14:48:16;;;;;;;;;;;15.20;99.90;;;;;;5035285;28;19909;-64
2022/11/10 14:50:42;;;;;;;;;;;15.10;99.90;;;;;;5033897;28;19960;-64
2022/11/10 14:55:53;;;;;;;;;;;15.00;99.90;;;;;;5090907;27;19913;-64
2022/11/10 14:58:23;;;;;;;;;;;15.00;99.90;;;;;;5092859;28;20019;-64